createdAt,value
2023-01-10T00:15:22.128Z,53.48
2023-01-10T00:17:49.273Z,53.14
2023-01-10T00:20:16.912Z,53.18
2023-01-10T00:22:45.727Z,53.19
2023-01-10T00:25:12.882Z,53.58
2023-01-10T00:27:40.151Z,53.92
2023-01-10T00:30:14.386Z,54.08
2023-01-10T00:32:42.719Z,54.37
2023-01-10T00:35:11.208Z,54.36
2023-01-10T00:37:39.247Z,54.54
2023-01-10T00:40:10.431Z,54.82
2023-01-10T00:42:56.728Z,54.80
2023-01-10T00:45:25.315Z,54.93
2023-01-10T00:47:52.817Z,55.28
2023-01-10T00:50:19.930Z,55.49
2023-01-10T00:52:47.080Z,55.30
2023-01-10T00:55:14.225Z,55.77
2023-01-10T00:57:41.377Z,55.94
2023-01-10T01:00:10.288Z,55.71
2023-01-10T01:02:37.443Z,55.53
2023-01-10T01:05:05.457Z,55.56
2023-01-10T01:07:32.651Z,55.99
2023-01-10T01:10:18.443Z,56.01
2023-01-10T01:12:45.608Z,56.10
2023-01-10T01:15:12.748Z,56.33
2023-01-10T01:17:40.104Z,56.45
2023-01-10T01:20:08.130Z,56.73
2023-01-10T01:22:35.434Z,56.90
2023-01-10T01:25:04.643Z,56.83
2023-01-10T01:27:32.181Z,56.96
2023-01-10T01:29:59.345Z,57.25
2023-01-10T01:32:26.709Z,57.26
2023-01-10T01:34:54.057Z,56.83
2023-01-10T01:37:21.313Z,57.19
2023-01-10T01:39:48.564Z,57.18
2023-01-10T01:42:29.540Z,57.56
2023-01-10T01:45:08.996Z,57.66
2023-01-10T01:47:37.878Z,57.76
2023-01-10T01:50:05.334Z,58.11
2023-01-10T01:52:34.846Z,58.05
2023-01-10T01:55:01.992Z,58.19
2023-01-10T01:57:29.449Z,58.25
2023-01-10T01:59:56.612Z,58.19
2023-01-10T02:02:27.601Z,58.29
2023-01-10T02:04:57.675Z,58.41
2023-01-10T02:07:24.914Z,58.71
2023-01-10T02:09:54.442Z,58.74
2023-01-10T02:12:21.582Z,58.89
2023-01-10T02:14:49.998Z,59.17
2023-01-10T02:17:17.207Z,58.85
2023-01-10T02:19:50.915Z,59.15
2023-01-10T02:22:40.077Z,59.41
2023-01-10T02:25:22.485Z,59.29
2023-01-10T02:27:58.853Z,59.24
2023-01-10T02:30:48.022Z,59.37
2023-01-10T02:33:27.872Z,59.37
2023-01-10T02:35:56.963Z,59.71
2023-01-10T02:38:58.037Z,59.37
2023-01-10T02:41:33.971Z,59.70
2023-01-10T02:44:05.634Z,59.73
2023-01-10T02:46:32.862Z,59.88
2023-01-10T02:49:00.040Z,60.16
2023-01-10T02:51:28.607Z,59.89
2023-01-10T02:54:15.018Z,59.67
2023-01-10T02:57:00.995Z,59.87
2023-01-10T02:59:56.221Z,59.81
2023-01-10T03:03:02.976Z,59.89
2023-01-10T03:05:33.223Z,59.96
2023-01-10T03:08:24.153Z,60.37
2023-01-10T03:10:57.633Z,60.35
2023-01-10T03:13:24.679Z,60.52
2023-01-10T03:15:51.856Z,60.89
2023-01-10T03:18:23.808Z,60.93
2023-01-10T03:20:51.385Z,60.19
2023-01-10T03:23:18.613Z,60.26
2023-01-10T03:25:46.846Z,60.73
2023-01-10T03:28:17.415Z,60.47
2023-01-10T03:30:51.176Z,60.53
2023-01-10T03:33:21.547Z,60.57
2023-01-10T03:36:01.293Z,60.75
2023-01-10T03:38:32.846Z,61.20
2023-01-10T03:41:04.813Z,61.52
2023-01-10T03:44:02.379Z,61.71
2023-01-10T03:46:47.684Z,61.94
2023-01-10T03:49:14.807Z,62.11
2023-01-10T03:51:41.953Z,62.34
2023-01-10T03:54:09.407Z,62.38
2023-01-10T03:56:47.192Z,62.59
2023-01-10T03:59:14.366Z,62.87
2023-01-10T04:01:41.627Z,62.99
2023-01-10T04:04:08.794Z,63.17
2023-01-10T04:06:35.915Z,63.37
2023-01-10T04:09:03.058Z,63.62
2023-01-10T04:11:30.216Z,63.87
2023-01-10T04:13:57.368Z,64.02
2023-01-10T04:16:24.688Z,64.17
2023-01-10T04:18:51.976Z,64.20
2023-01-10T04:21:19.227Z,64.46
2023-01-10T04:23:46.378Z,64.70
2023-01-10T04:26:13.533Z,64.76
2023-01-10T04:28:40.690Z,65.36
2023-01-10T04:31:07.850Z,65.65
2023-01-10T04:33:34.993Z,65.73
2023-01-10T04:36:02.129Z,65.82
2023-01-10T04:38:29.281Z,65.94
2023-01-10T04:40:56.903Z,66.16
2023-01-10T04:43:26.964Z,66.38
2023-01-10T04:45:54.134Z,66.57
2023-01-10T04:48:21.370Z,66.77
2023-01-10T04:50:52.258Z,66.61
2023-01-10T04:53:19.469Z,66.52
2023-01-10T04:55:47.019Z,66.70
2023-01-10T04:58:14.179Z,66.65
2023-01-10T05:00:41.317Z,66.57
2023-01-10T05:03:08.632Z,66.55
2023-01-10T05:05:36.031Z,66.12
2023-01-10T05:08:03.181Z,65.80
2023-01-10T05:10:30.331Z,65.31
2023-01-10T05:12:57.484Z,65.07
2023-01-10T05:15:24.637Z,65.29
2023-01-10T05:17:58.038Z,65.29
2023-01-10T05:20:25.277Z,65.49
2023-01-10T05:22:52.439Z,65.70
2023-01-10T05:25:19.579Z,65.71
2023-01-10T05:27:46.727Z,65.42
2023-01-10T05:30:14.285Z,65.38
2023-01-10T05:32:41.455Z,65.24
2023-01-10T05:35:09.247Z,65.27
2023-01-10T05:37:38.028Z,65.11
2023-01-10T10:41:42.066Z,61.68
2023-01-10T10:44:36.466Z,60.59
2023-01-10T10:47:03.622Z,61.18
2023-01-10T10:49:34.441Z,61.68
2023-01-10T10:52:01.488Z,62.18
2023-01-10T10:54:28.641Z,62.42
2023-01-10T10:56:56.509Z,62.64
2023-01-10T10:59:23.763Z,62.74
2023-01-10T11:01:52.324Z,62.89
2023-01-10T11:04:21.828Z,63.03
2023-01-10T11:06:49.525Z,63.35
2023-01-10T11:09:29.372Z,63.18
2023-01-10T11:11:59.491Z,63.60
2023-01-10T11:14:51.732Z,63.65
2023-01-10T11:17:21.339Z,63.73
2023-01-10T11:20:05.291Z,63.85
2023-01-10T11:22:39.809Z,63.80
2023-01-10T11:25:16.894Z,63.64
2023-01-10T11:27:52.029Z,63.39
2023-01-10T11:30:27.372Z,63.10
2023-01-10T11:33:08.377Z,63.87
2023-01-10T11:35:37.501Z,63.91
2023-01-10T11:38:14.021Z,63.35
2023-01-10T11:40:41.171Z,63.43
2023-01-10T11:43:33.413Z,63.89
2023-01-10T11:46:21.850Z,63.82
2023-01-10T11:49:11.153Z,64.33
2023-01-10T11:51:46.275Z,64.25
2023-01-10T11:54:26.941Z,64.26
2023-01-10T11:56:59.420Z,63.86
2023-01-10T11:59:26.880Z,64.09
2023-01-10T12:02:12.542Z,64.06
2023-01-10T12:04:41.850Z,64.17
2023-01-10T12:07:10.143Z,63.79
2023-01-10T12:09:57.345Z,63.13
2023-01-10T12:12:31.134Z,63.19
2023-01-10T12:14:59.038Z,63.52
2023-01-10T12:17:30.180Z,63.66
2023-01-10T12:20:00.754Z,63.43
2023-01-10T12:22:32.932Z,63.51
2023-01-10T12:25:00.648Z,63.77
2023-01-10T12:27:28.210Z,62.98
2023-01-10T12:30:06.418Z,62.25
2023-01-10T12:32:37.306Z,62.52
2023-01-10T12:35:14.446Z,63.14
2023-01-10T12:37:52.146Z,62.91
2023-01-10T12:40:25.977Z,62.18
2023-01-10T12:43:24.441Z,62.56
2023-01-10T12:45:54.151Z,62.50
2023-01-10T12:48:27.446Z,62.84
2023-01-10T12:50:58.999Z,62.90
2023-01-10T12:53:34.858Z,62.52
2023-01-10T12:56:05.280Z,62.66
2023-01-10T12:58:45.440Z,62.82
2023-01-10T13:01:17.577Z,62.91
2023-01-10T13:03:45.282Z,62.98
2023-01-10T13:06:21.957Z,62.52
2023-01-10T13:08:49.097Z,62.45
2023-01-10T13:11:16.563Z,62.12
2023-01-10T13:13:47.361Z,62.26
2023-01-10T13:16:49.058Z,62.52
2023-01-10T13:19:20.203Z,62.31
2023-01-10T13:21:47.665Z,61.68
2023-01-10T13:24:28.127Z,61.53
2023-01-10T13:26:56.709Z,61.65
2023-01-10T13:29:28.263Z,61.55
2023-01-10T13:31:59.818Z,61.65
2023-01-10T13:34:32.112Z,61.89
2023-01-10T13:37:04.939Z,61.89
2023-01-10T13:39:33.466Z,61.60
2023-01-10T13:42:19.351Z,61.81
2023-01-10T13:45:02.289Z,61.77
2023-01-10T13:47:43.668Z,61.73
2023-01-10T13:50:23.461Z,61.91
2023-01-10T13:52:51.076Z,61.80
2023-01-10T13:55:25.812Z,62.06
2023-01-10T13:58:00.280Z,62.07
2023-01-10T14:01:10.659Z,61.98
2023-01-10T14:03:49.641Z,61.91
2023-01-10T14:06:28.350Z,62.13
2023-01-10T14:09:07.628Z,62.06
2023-01-10T20:23:39.915Z,75.64
2023-01-10T20:26:11.873Z,73.95
2023-01-10T20:28:39.429Z,73.41
2023-01-10T20:31:08.068Z,73.26
2023-01-10T20:33:35.182Z,73.46
2023-01-10T20:36:04.765Z,73.71
2023-01-10T20:38:32.547Z,73.61
2023-01-10T20:41:01.210Z,73.64
2023-01-10T20:43:28.382Z,73.81
2023-01-10T20:45:55.634Z,74.29
2023-01-10T20:48:22.789Z,74.65
2023-01-10T20:50:49.944Z,74.98
2023-01-10T20:53:17.111Z,75.18
2023-01-10T20:55:46.844Z,75.33
2023-01-10T20:58:18.152Z,75.48
2023-01-10T21:00:45.303Z,75.53
2023-01-10T21:03:12.503Z,75.46
2023-01-10T21:05:39.710Z,75.75
2023-01-10T21:08:06.974Z,75.60
2023-01-10T21:10:34.957Z,75.70
2023-01-10T21:13:02.191Z,75.38
2023-01-10T21:15:29.333Z,75.42
2023-01-10T21:17:56.486Z,75.42
2023-01-10T21:20:23.636Z,75.55
2023-01-10T21:22:50.803Z,75.30
2023-01-10T21:25:18.042Z,75.17
2023-01-10T21:27:45.200Z,75.40
2023-01-10T21:30:12.983Z,75.38
2023-01-10T21:32:40.430Z,75.49
2023-01-10T21:35:08.392Z,75.38
2023-01-10T21:37:37.595Z,75.37
2023-01-10T21:40:05.459Z,75.50
2023-01-10T21:42:35.579Z,75.28
2023-01-10T21:45:02.691Z,74.91
2023-01-10T21:47:29.884Z,74.67
2023-01-10T21:49:56.990Z,74.87
2023-01-10T21:52:24.087Z,75.18
2023-01-10T21:54:51.353Z,75.22
2023-01-10T21:57:22.283Z,75.81
